createdAt,value
2022-12-25T00:00:22.147Z,8.53
2022-12-25T00:01:24.725Z,8.51
2022-12-25T00:02:26.075Z,8.51
2022-12-25T00:03:27.582Z,8.48
2022-12-25T00:04:28.999Z,8.47
2022-12-25T00:05:30.265Z,8.48
2022-12-25T00:06:31.505Z,8.49
2022-12-25T00:07:32.753Z,8.51
2022-12-25T00:08:34.412Z,8.50
2022-12-25T00:09:35.605Z,8.50
2022-12-25T00:10:44.602Z,8.54
2022-12-25T00:11:46.433Z,8.53
2022-12-25T00:12:47.816Z,8.56
2022-12-25T00:13:49.154Z,8.60
2022-12-25T00:14:50.412Z,8.59
2022-12-25T00:15:51.917Z,8.58
2022-12-25T00:16:53.200Z,8.58
2022-12-25T00:17:54.432Z,8.58
2022-12-25T00:18:56.313Z,8.58
2022-12-25T00:19:57.687Z,8.58
2022-12-25T00:21:00.331Z,8.59
2022-12-25T00:22:01.584Z,8.59
2022-12-25T00:23:02.871Z,8.61
2022-12-25T00:24:04.193Z,8.60
2022-12-25T00:25:05.677Z,8.59
2022-12-25T00:26:07.762Z,8.58
2022-12-25T00:27:09.084Z,8.59
2022-12-25T00:28:10.373Z,8.62
2022-12-25T00:29:12.359Z,8.62
2022-12-25T00:30:13.712Z,8.61
2022-12-25T00:31:16.669Z,8.60
2022-12-25T00:32:17.988Z,8.60
2022-12-25T00:33:19.381Z,8.59
2022-12-25T00:34:20.637Z,8.60
2022-12-25T00:35:21.871Z,8.57
2022-12-25T00:36:23.246Z,8.60
2022-12-25T00:37:24.465Z,8.60
2022-12-25T00:38:26.369Z,8.59
2022-12-25T00:39:27.618Z,8.60
2022-12-25T00:40:28.839Z,8.60
2022-12-25T00:41:30.056Z,8.61
2022-12-25T00:42:31.259Z,8.60
2022-12-25T00:43:32.547Z,8.59
2022-12-25T00:44:33.816Z,8.59
2022-12-25T00:45:35.137Z,8.58
2022-12-25T00:46:36.618Z,8.58
2022-12-25T00:47:37.932Z,8.58
2022-12-25T00:48:39.600Z,8.65
2022-12-25T00:49:40.900Z,8.67
2022-12-25T00:50:42.177Z,8.66
2022-12-25T00:51:43.434Z,8.63
2022-12-25T00:52:44.710Z,8.63
2022-12-25T00:53:45.939Z,8.63
2022-12-25T00:54:47.136Z,8.61
2022-12-25T00:55:55.363Z,8.62
2022-12-25T00:56:56.620Z,8.64
2022-12-25T00:57:58.617Z,8.64
2022-12-25T00:58:59.907Z,8.62
2022-12-25T01:00:01.218Z,8.65
2022-12-25T01:01:02.848Z,8.63
2022-12-25T01:02:04.385Z,8.62
2022-12-25T01:03:05.741Z,8.61
2022-12-25T01:04:07.109Z,8.61
2022-12-25T01:05:08.648Z,8.61
2022-12-25T01:06:10.770Z,8.61
2022-12-25T01:07:12.012Z,8.60
2022-12-25T01:08:13.255Z,8.62
2022-12-25T01:09:14.525Z,8.66
2022-12-25T01:10:15.876Z,8.66
2022-12-25T01:11:17.142Z,8.65
2022-12-25T01:12:18.425Z,8.64
2022-12-25T01:13:19.677Z,8.64
2022-12-25T01:14:20.951Z,8.68
2022-12-25T01:15:22.210Z,8.71
2022-12-25T01:16:23.546Z,8.72
2022-12-25T01:17:24.892Z,8.70
2022-12-25T01:18:26.162Z,8.73
2022-12-25T01:19:27.404Z,8.75
2022-12-25T01:20:28.693Z,8.75
2022-12-25T01:21:30.441Z,8.76
2022-12-25T01:22:31.769Z,8.75
2022-12-25T01:23:33.008Z,8.72
2022-12-25T01:24:34.563Z,8.70
2022-12-25T01:25:35.818Z,8.70
2022-12-25T01:26:37.075Z,8.66
2022-12-25T01:27:39.182Z,8.65
2022-12-25T01:28:40.749Z,8.65
2022-12-25T01:29:42.021Z,8.67
2022-12-25T01:30:49.539Z,8.69
2022-12-25T01:31:50.841Z,8.69
2022-12-25T01:32:52.375Z,8.66
2022-12-25T01:33:53.745Z,8.66
2022-12-25T01:34:56.273Z,8.67
2022-12-25T01:35:57.759Z,8.66
2022-12-25T01:36:59.125Z,8.68
2022-12-25T01:38:00.483Z,8.71
2022-12-25T01:39:01.727Z,8.70
2022-12-25T01:40:03.530Z,8.71
2022-12-25T01:41:04.878Z,8.74
2022-12-25T01:42:06.305Z,8.72
2022-12-25T01:43:28.402Z,8.73
2022-12-25T01:44:35.275Z,8.73
2022-12-25T01:45:44.308Z,8.75
2022-12-25T01:46:45.651Z,8.75
2022-12-25T01:47:46.952Z,8.78
2022-12-25T01:48:48.678Z,8.76
2022-12-25T01:49:50.499Z,8.77
2022-12-25T01:50:55.335Z,8.79
2022-12-25T01:51:59.021Z,8.80
2022-12-25T01:53:00.281Z,8.80
2022-12-25T01:54:03.517Z,8.79
2022-12-25T01:55:05.006Z,8.81
2022-12-25T01:56:07.907Z,8.82
2022-12-25T01:57:11.159Z,8.82
2022-12-25T01:58:13.003Z,8.81
2022-12-25T01:59:16.061Z,8.80
2022-12-25T02:00:17.409Z,8.81
2022-12-25T02:01:18.816Z,8.81
2022-12-25T02:02:20.877Z,8.81
2022-12-25T02:03:22.591Z,8.79
2022-12-25T02:04:23.918Z,8.80
2022-12-25T02:05:29.267Z,8.79
2022-12-25T02:06:30.567Z,8.82
2022-12-25T02:07:34.473Z,8.81
2022-12-25T02:08:35.865Z,8.81
2022-12-25T02:09:37.141Z,8.83
2022-12-25T02:10:38.428Z,8.84
2022-12-25T02:11:39.712Z,8.85
2022-12-25T02:12:41.164Z,8.84
2022-12-25T02:13:42.375Z,8.85
2022-12-25T02:14:44.266Z,8.84
2022-12-25T02:15:54.985Z,8.84
2022-12-25T02:17:03.830Z,8.85
2022-12-25T02:18:10.001Z,8.84
2022-12-25T02:19:31.083Z,8.86
2022-12-25T02:20:57.097Z,8.85
2022-12-25T02:22:07.105Z,8.84
2022-12-25T02:23:26.766Z,8.83
2022-12-25T02:24:35.736Z,8.84
2022-12-25T02:25:45.970Z,8.83
2022-12-25T02:27:06.175Z,8.84
2022-12-25T02:28:10.242Z,8.84
2022-12-25T02:29:17.192Z,8.84
2022-12-25T02:30:18.609Z,8.86
2022-12-25T02:31:29.509Z,8.86
2022-12-25T02:32:33.559Z,8.88
2022-12-25T02:33:41.398Z,8.89
2022-12-25T02:34:45.513Z,8.90
2022-12-25T02:35:48.711Z,8.90
2022-12-25T02:36:52.896Z,8.92
2022-12-25T02:38:04.496Z,8.89
2022-12-25T02:39:10.381Z,8.88
2022-12-25T02:40:16.678Z,8.87
2022-12-25T02:41:17.965Z,8.88
2022-12-25T02:42:33.922Z,8.87
2022-12-25T02:43:38.650Z,8.87
2022-12-25T02:44:43.030Z,8.86
2022-12-25T02:45:56.002Z,8.85
2022-12-25T02:46:57.428Z,8.86
2022-12-25T02:47:58.761Z,8.87
2022-12-25T02:49:03.209Z,8.87
2022-12-25T02:50:05.427Z,8.87
2022-12-25T02:51:09.507Z,8.89
2022-12-25T02:52:16.430Z,8.88
2022-12-25T02:53:17.845Z,8.87
2022-12-25T02:54:21.907Z,8.91
2022-12-25T02:55:27.229Z,8.89
2022-12-25T02:56:29.444Z,8.92
2022-12-25T02:57:33.646Z,8.90
2022-12-25T02:58:37.093Z,8.88
2022-12-25T02:59:40.493Z,8.86
2022-12-25T03:00:44.885Z,8.84
2022-12-25T03:01:46.366Z,8.86
2022-12-25T03:02:48.845Z,8.83
2022-12-25T03:03:51.081Z,8.85
2022-12-25T03:04:55.036Z,8.85
2022-12-25T03:05:59.709Z,8.83
2022-12-25T03:07:00.999Z,8.81
2022-12-25T03:08:03.939Z,8.82
2022-12-25T03:09:06.106Z,8.80
2022-12-25T03:10:09.261Z,8.81
2022-12-25T03:11:12.341Z,8.81
2022-12-25T03:12:18.066Z,8.80
2022-12-25T03:13:22.483Z,8.80
2022-12-25T03:14:23.841Z,8.84
2022-12-25T03:15:25.419Z,8.84
2022-12-25T03:16:26.734Z,8.81
2022-12-25T03:17:28.044Z,8.79
2022-12-25T03:18:31.080Z,8.82
2022-12-25T03:19:33.412Z,8.84
2022-12-25T03:20:34.794Z,8.82
2022-12-25T03:21:36.030Z,8.81
2022-12-25T03:22:37.656Z,8.80
2022-12-25T03:23:40.241Z,8.79
2022-12-25T03:24:41.504Z,8.84
2022-12-25T03:25:43.857Z,8.91
2022-12-25T03:26:45.448Z,8.88
2022-12-25T03:27:49.158Z,8.87
2022-12-25T03:28:50.419Z,8.83
2022-12-25T03:29:51.673Z,8.83
2022-12-25T03:31:13.484Z,8.83
2022-12-25T03:32:23.706Z,8.85
2022-12-25T03:33:47.413Z,8.82
2022-12-25T03:34:53.972Z,8.82
2022-12-25T03:36:22.863Z,8.84
2022-12-25T03:37:24.133Z,8.83
2022-12-25T03:38:50.523Z,8.80
2022-12-25T03:40:02.794Z,8.76
2022-12-25T03:41:14.096Z,8.74
2022-12-25T03:42:18.864Z,8.73
2022-12-25T03:43:38.987Z,8.72
2022-12-25T03:44:51.065Z,8.75
2022-12-25T03:45:57.707Z,8.78
2022-12-25T03:47:04.680Z,8.80
2022-12-25T03:48:07.412Z,8.78
2022-12-25T03:49:17.575Z,8.74
2022-12-25T03:50:22.010Z,8.75
2022-12-25T03:51:26.049Z,8.72
2022-12-25T03:52:28.152Z,8.76
2022-12-25T03:53:31.358Z,8.75
2022-12-25T03:54:33.412Z,8.75
2022-12-25T03:55:36.246Z,8.74
2022-12-25T03:56:38.178Z,8.79
2022-12-25T03:57:39.458Z,8.78
2022-12-25T03:58:50.125Z,8.79
2022-12-25T03:59:51.389Z,8.77
2022-12-25T04:00:52.769Z,8.76
2022-12-25T04:01:54.150Z,8.75
2022-12-25T04:02:55.717Z,8.72
2022-12-25T04:03:57.069Z,8.73
2022-12-25T04:04:58.330Z,8.75
2022-12-25T04:05:59.600Z,8.74
2022-12-25T04:07:00.835Z,8.70
2022-12-25T04:08:02.040Z,8.69
2022-12-25T04:09:03.287Z,8.67
2022-12-25T04:10:04.828Z,8.66
2022-12-25T04:11:06.031Z,8.66
2022-12-25T04:12:07.252Z,8.69
2022-12-25T04:13:08.533Z,8.73
2022-12-25T04:14:09.789Z,8.74
2022-12-25T04:15:11.033Z,8.73
2022-12-25T04:16:12.369Z,8.70
2022-12-25T04:17:13.665Z,8.69
2022-12-25T04:18:14.969Z,8.69
2022-12-25T04:19:16.246Z,8.72
2022-12-25T04:20:17.585Z,8.70
2022-12-25T04:21:18.881Z,8.71
2022-12-25T04:22:20.186Z,8.74
2022-12-25T04:23:21.433Z,8.72
2022-12-25T04:24:22.649Z,8.74
2022-12-25T04:25:23.936Z,8.70
2022-12-25T04:26:25.196Z,8.70
2022-12-25T04:27:26.414Z,8.67
2022-12-25T04:28:27.642Z,8.65
2022-12-25T04:29:28.850Z,8.65
2022-12-25T04:30:30.089Z,8.65
2022-12-25T04:31:31.369Z,8.65
2022-12-25T04:32:32.687Z,8.67
2022-12-25T04:33:33.963Z,8.65
2022-12-25T04:34:35.220Z,8.63
2022-12-25T04:35:36.483Z,8.64
2022-12-25T04:36:37.693Z,8.62
2022-12-25T04:37:38.982Z,8.60
2022-12-25T04:38:40.837Z,8.60
2022-12-25T04:39:42.088Z,8.57
2022-12-25T04:40:43.395Z,8.62
2022-12-25T04:41:44.606Z,8.60
2022-12-25T04:42:45.857Z,8.56
2022-12-25T04:43:47.110Z,8.57
2022-12-25T04:44:48.362Z,8.56
2022-12-25T04:45:53.425Z,8.58
2022-12-25T04:46:54.708Z,8.55
2022-12-25T04:47:58.587Z,8.57
2022-12-25T04:48:59.853Z,8.60
2022-12-25T04:50:01.231Z,8.62
2022-12-25T04:51:19.151Z,8.61
2022-12-25T04:52:20.377Z,8.62
2022-12-25T04:53:21.723Z,8.60
2022-12-25T04:54:23.122Z,8.56
2022-12-25T04:55:24.371Z,8.55
2022-12-25T04:56:25.634Z,8.55
2022-12-25T04:57:26.879Z,8.59
2022-12-25T04:58:28.165Z,8.57
2022-12-25T04:59:29.524Z,8.58
2022-12-25T05:00:30.827Z,8.58
2022-12-25T05:01:32.181Z,8.60
2022-12-25T05:02:33.884Z,8.59
2022-12-25T05:03:35.641Z,8.61
2022-12-25T05:04:36.889Z,8.62
2022-12-25T05:05:39.375Z,8.60
2022-12-25T05:06:40.647Z,8.60
2022-12-25T05:07:41.885Z,8.59
2022-12-25T05:08:43.241Z,8.64
2022-12-25T05:09:44.509Z,8.62
2022-12-25T05:10:45.872Z,8.63
2022-12-25T05:11:47.180Z,8.61
2022-12-25T05:12:48.510Z,8.59
2022-12-25T05:13:49.738Z,8.61
2022-12-25T05:14:51.027Z,8.64
2022-12-25T05:15:52.479Z,8.59
2022-12-25T05:16:53.806Z,8.59
2022-12-25T05:17:55.096Z,8.65
2022-12-25T05:18:56.820Z,8.71
2022-12-25T05:19:58.092Z,8.66
2022-12-25T05:20:59.375Z,8.64
2022-12-25T05:22:00.653Z,8.63
2022-12-25T05:23:01.923Z,8.63
2022-12-25T05:24:03.259Z,8.65
2022-12-25T05:25:04.673Z,8.63
2022-12-25T05:26:06.923Z,8.64
2022-12-25T05:27:08.200Z,8.61
2022-12-25T05:28:09.415Z,8.62
2022-12-25T05:29:10.697Z,8.67
2022-12-25T05:30:12.026Z,8.68
2022-12-25T05:31:13.353Z,8.65
2022-12-25T05:32:14.641Z,8.66
2022-12-25T05:33:15.906Z,8.63
2022-12-25T05:34:17.113Z,8.65
2022-12-25T05:35:18.309Z,8.65
2022-12-25T05:36:19.653Z,8.64
2022-12-25T05:37:20.881Z,8.64
2022-12-25T05:38:22.155Z,8.65
2022-12-25T05:39:23.692Z,8.65
2022-12-25T05:40:24.933Z,8.65
2022-12-25T05:41:30.723Z,8.66
2022-12-25T05:42:35.329Z,8.66
2022-12-25T05:43:36.569Z,8.64
2022-12-25T05:44:37.790Z,8.66
2022-12-25T05:45:39.045Z,8.73
2022-12-25T05:46:40.336Z,8.72
2022-12-25T05:47:41.578Z,8.70
2022-12-25T05:48:42.856Z,8.68
2022-12-25T05:49:44.112Z,8.71
2022-12-25T05:50:45.347Z,8.70
2022-12-25T05:51:46.623Z,8.70
2022-12-25T05:52:47.897Z,8.71
2022-12-25T05:53:49.156Z,8.71
2022-12-25T05:54:50.422Z,8.70
2022-12-25T05:55:51.630Z,8.70
2022-12-25T05:56:52.841Z,8.70
2022-12-25T05:57:54.075Z,8.69
2022-12-25T05:58:55.352Z,8.72
2022-12-25T05:59:56.875Z,8.76
2022-12-25T06:00:58.291Z,8.78
2022-12-25T06:01:59.900Z,8.76
2022-12-25T06:03:01.397Z,8.73
2022-12-25T06:04:05.805Z,8.69
2022-12-25T06:05:11.517Z,8.73
2022-12-25T06:06:12.857Z,8.70
2022-12-25T06:07:14.347Z,8.73
2022-12-25T06:08:15.600Z,8.72
2022-12-25T06:09:16.870Z,8.69
2022-12-25T06:10:18.364Z,8.66
2022-12-25T06:11:19.614Z,8.63
2022-12-25T06:12:20.853Z,8.66
2022-12-25T06:13:22.144Z,8.67
2022-12-25T06:14:23.432Z,8.69
2022-12-25T06:15:24.717Z,8.68
2022-12-25T06:16:26.103Z,8.75
2022-12-25T06:17:27.529Z,8.75
2022-12-25T06:18:28.772Z,8.74
2022-12-25T06:19:30.047Z,8.71
2022-12-25T06:20:31.282Z,8.71
2022-12-25T06:21:32.777Z,8.70
2022-12-25T06:22:34.524Z,8.70
2022-12-25T06:23:36.642Z,8.67
2022-12-25T06:24:37.937Z,8.66
2022-12-25T06:25:39.943Z,8.66
2022-12-25T06:26:41.157Z,8.66
2022-12-25T06:27:42.496Z,8.64
2022-12-25T06:28:43.937Z,8.66
2022-12-25T06:29:45.149Z,8.72
2022-12-25T06:30:46.374Z,8.72
2022-12-25T06:31:47.735Z,8.72
2022-12-25T06:32:49.142Z,8.72
2022-12-25T06:33:50.390Z,8.74
2022-12-25T06:34:52.017Z,8.72
2022-12-25T06:35:53.249Z,8.69
2022-12-25T06:36:54.548Z,8.68
2022-12-25T06:37:55.918Z,8.67
2022-12-25T06:38:59.738Z,8.70
2022-12-25T06:40:01.003Z,8.74
2022-12-25T06:41:03.195Z,8.77
2022-12-25T06:42:04.460Z,8.74
2022-12-25T06:43:05.754Z,8.72
2022-12-25T06:44:07.066Z,8.73
2022-12-25T06:45:08.542Z,8.74
2022-12-25T06:46:10.834Z,8.73
2022-12-25T06:47:12.109Z,8.74
2022-12-25T06:48:13.329Z,8.73
2022-12-25T06:49:14.614Z,8.72
2022-12-25T06:50:15.897Z,8.71
2022-12-25T06:51:17.599Z,8.72
2022-12-25T06:52:18.809Z,8.73
2022-12-25T06:53:20.042Z,8.72
2022-12-25T06:54:21.311Z,8.73
2022-12-25T06:55:22.508Z,8.71
2022-12-25T06:56:25.162Z,8.71
2022-12-25T06:57:26.392Z,8.71
2022-12-25T06:58:28.193Z,8.70
2022-12-25T06:59:29.498Z,8.68
2022-12-25T07:00:30.785Z,8.69
2022-12-25T07:01:35.065Z,8.73
2022-12-25T07:02:36.507Z,8.75
2022-12-25T07:03:37.801Z,8.77
2022-12-25T07:04:40.324Z,8.75
2022-12-25T07:05:41.636Z,8.76
2022-12-25T07:06:42.889Z,8.78
2022-12-25T07:07:44.178Z,8.76
2022-12-25T07:08:45.436Z,8.75
2022-12-25T07:09:46.687Z,8.74
2022-12-25T07:10:47.937Z,8.74
2022-12-25T07:11:49.245Z,8.74
2022-12-25T07:12:50.485Z,8.74
2022-12-25T07:13:51.809Z,8.73
2022-12-25T07:14:53.944Z,8.73
2022-12-25T07:15:58.497Z,8.74
2022-12-25T07:16:59.990Z,8.73
2022-12-25T07:18:01.454Z,8.73
2022-12-25T07:19:02.740Z,8.73
2022-12-25T07:20:04.146Z,8.73
2022-12-25T07:21:09.204Z,8.71
2022-12-25T07:22:10.452Z,8.74
2022-12-25T07:23:11.744Z,8.74
2022-12-25T07:24:17.596Z,8.73
2022-12-25T07:25:18.864Z,8.76
2022-12-25T07:26:20.119Z,8.76
2022-12-25T07:27:24.401Z,8.76
2022-12-25T07:28:26.085Z,8.77
2022-12-25T07:29:27.359Z,8.83
2022-12-25T07:30:28.704Z,8.82
2022-12-25T07:31:30.075Z,8.83
2022-12-25T07:32:31.880Z,8.83
2022-12-25T07:33:33.586Z,8.84
2022-12-25T07:34:34.856Z,8.84
2022-12-25T07:35:36.103Z,8.85
2022-12-25T07:36:39.452Z,8.86
2022-12-25T07:37:40.724Z,8.86
2022-12-25T07:38:42.322Z,8.89
2022-12-25T07:39:43.573Z,8.88
2022-12-25T07:40:47.082Z,8.92
2022-12-25T07:41:48.310Z,8.92
2022-12-25T07:42:49.638Z,8.90
2022-12-25T07:43:51.231Z,8.92
2022-12-25T07:44:52.466Z,8.92
2022-12-25T07:45:57.444Z,8.92
2022-12-25T07:46:58.756Z,8.92
2022-12-25T07:48:05.190Z,8.91
2022-12-25T07:49:07.208Z,8.93
2022-12-25T07:50:10.107Z,8.96
2022-12-25T07:51:12.962Z,8.98
2022-12-25T07:52:14.225Z,8.97
2022-12-25T07:53:15.438Z,8.98
2022-12-25T07:54:16.703Z,8.98
2022-12-25T07:55:17.962Z,8.97
2022-12-25T07:56:19.904Z,8.97
2022-12-25T07:57:21.153Z,8.98
2022-12-25T07:58:23.555Z,8.96
2022-12-25T07:59:27.170Z,8.94
2022-12-25T08:00:28.393Z,8.96
2022-12-25T08:01:29.933Z,8.97
2022-12-25T08:02:31.783Z,9.00
2022-12-25T08:03:34.252Z,8.98
2022-12-25T08:04:35.666Z,8.98
2022-12-25T08:05:36.892Z,8.99
2022-12-25T08:06:41.149Z,8.98
2022-12-25T08:07:42.389Z,8.96
2022-12-25T08:08:43.659Z,8.94
2022-12-25T08:09:44.914Z,8.96
2022-12-25T08:10:47.258Z,8.95
2022-12-25T08:11:51.564Z,8.97
2022-12-25T08:12:55.465Z,8.96
2022-12-25T08:13:56.734Z,8.96
2022-12-25T08:14:57.972Z,8.95
2022-12-25T08:16:00.165Z,8.96
2022-12-25T08:17:01.595Z,8.95
2022-12-25T08:18:02.889Z,8.95
2022-12-25T08:19:04.109Z,8.92
2022-12-25T08:20:05.837Z,8.92
2022-12-25T08:21:08.735Z,8.95
2022-12-25T08:22:10.035Z,8.94
2022-12-25T08:23:11.360Z,8.96
2022-12-25T08:24:12.566Z,8.98
2022-12-25T08:25:13.841Z,8.99
2022-12-25T08:26:16.805Z,9.00
2022-12-25T08:27:18.090Z,9.00
2022-12-25T08:28:19.308Z,9.01
2022-12-25T08:29:20.944Z,9.01
2022-12-25T08:30:22.168Z,9.02
2022-12-25T08:31:30.280Z,9.03
2022-12-25T08:32:34.737Z,9.03
2022-12-25T08:33:36.481Z,9.03
2022-12-25T08:34:38.212Z,9.04
2022-12-25T08:35:39.515Z,9.04
2022-12-25T08:36:40.743Z,9.03
2022-12-25T08:37:42.053Z,9.05
2022-12-25T08:38:43.688Z,9.07
2022-12-25T08:39:44.928Z,9.10
2022-12-25T08:40:46.195Z,9.12
2022-12-25T08:41:47.475Z,9.15
2022-12-25T08:42:48.757Z,9.18
2022-12-25T08:43:50.156Z,9.21
2022-12-25T08:44:51.522Z,9.23
2022-12-25T08:45:52.768Z,9.24
2022-12-25T08:46:54.083Z,9.29
2022-12-25T08:48:16.826Z,9.32
2022-12-25T08:49:18.074Z,9.39
2022-12-25T08:50:19.333Z,9.42
2022-12-25T08:51:24.531Z,9.44
2022-12-25T08:52:25.824Z,9.47
2022-12-25T08:53:27.180Z,9.50
2022-12-25T08:54:28.436Z,9.52
2022-12-25T08:55:29.733Z,9.51
2022-12-25T08:56:31.077Z,9.52
2022-12-25T08:57:36.095Z,9.50
2022-12-25T08:58:37.630Z,9.49
2022-12-25T08:59:38.899Z,9.50
2022-12-25T09:00:40.621Z,9.47
2022-12-25T09:01:45.327Z,9.48
2022-12-25T09:02:46.838Z,9.44
2022-12-25T09:03:48.387Z,9.42
2022-12-25T09:04:49.621Z,9.39
2022-12-25T09:05:51.548Z,9.37
2022-12-25T09:06:52.806Z,9.35
2022-12-25T09:07:54.192Z,9.34
2022-12-25T09:08:55.424Z,9.34
2022-12-25T09:09:59.064Z,9.33
2022-12-25T09:11:05.170Z,9.31
2022-12-25T09:12:06.493Z,9.30
2022-12-25T09:13:07.981Z,9.30
2022-12-25T09:14:09.258Z,9.37
2022-12-25T09:15:13.514Z,9.36
2022-12-25T09:16:16.388Z,9.38
2022-12-25T09:17:17.638Z,9.35
2022-12-25T09:18:18.903Z,9.35
2022-12-25T09:19:20.192Z,9.34
2022-12-25T09:20:23.528Z,9.33
2022-12-25T09:21:24.810Z,9.30
2022-12-25T09:22:26.158Z,9.30
2022-12-25T09:23:27.828Z,9.31
2022-12-25T09:24:29.085Z,9.31
2022-12-25T09:25:30.424Z,9.28
2022-12-25T09:26:31.763Z,9.29
2022-12-25T09:27:33.046Z,9.27
2022-12-25T09:28:34.386Z,9.29
2022-12-25T09:29:35.661Z,9.33
2022-12-25T09:30:37.007Z,9.31
2022-12-25T09:31:38.454Z,9.33
2022-12-25T09:32:39.874Z,9.38
2022-12-25T09:33:41.192Z,9.39
2022-12-25T09:34:42.603Z,9.40
2022-12-25T09:35:43.836Z,9.43
2022-12-25T09:36:45.061Z,9.47
2022-12-25T09:37:46.401Z,9.53
2022-12-25T09:38:47.599Z,9.53
2022-12-25T09:39:48.840Z,9.54
2022-12-25T09:41:05.082Z,9.54
2022-12-25T09:42:18.941Z,9.58
2022-12-25T09:43:20.586Z,9.60
2022-12-25T09:44:26.647Z,9.63
2022-12-25T09:45:35.616Z,9.64
2022-12-25T09:46:55.595Z,9.65
2022-12-25T09:47:57.355Z,9.67
2022-12-25T09:49:03.237Z,9.75
2022-12-25T09:50:20.446Z,9.75
2022-12-25T09:51:22.916Z,9.74
2022-12-25T09:52:35.386Z,9.73
2022-12-25T09:53:38.474Z,9.73
2022-12-25T09:54:59.187Z,9.76
2022-12-25T09:56:06.212Z,9.76
2022-12-25T09:57:11.743Z,9.77
2022-12-25T09:58:13.345Z,9.77
2022-12-25T09:59:24.928Z,9.82
2022-12-25T10:00:31.780Z,9.81
2022-12-25T10:01:40.155Z,9.85
2022-12-25T10:03:00.778Z,9.88
2022-12-25T10:04:40.989Z,9.88
2022-12-25T10:05:45.537Z,9.90
2022-12-25T10:08:18.657Z,9.96
2022-12-25T10:09:47.836Z,10.00
2022-12-25T10:11:08.044Z,10.02
2022-12-25T10:12:22.445Z,10.07
2022-12-25T10:13:27.244Z,10.10
2022-12-25T10:14:37.827Z,10.16
2022-12-25T10:15:51.408Z,10.24
2022-12-25T10:17:04.967Z,10.28
2022-12-25T10:18:13.056Z,10.35
2022-12-25T10:19:24.218Z,10.42
2022-12-25T10:20:44.819Z,10.41
2022-12-25T10:21:49.008Z,10.45
2022-12-25T10:22:52.732Z,10.46
2022-12-25T10:24:05.945Z,10.44
2022-12-25T10:25:14.640Z,10.44
2022-12-25T10:26:22.738Z,10.47
2022-12-25T10:27:42.010Z,10.51
2022-12-25T10:30:17.350Z,10.64
2022-12-25T10:31:23.874Z,10.67
2022-12-25T10:32:26.396Z,10.67
2022-12-25T10:33:28.825Z,10.67
2022-12-25T10:34:32.132Z,10.68
2022-12-25T10:35:37.644Z,10.68
2022-12-25T10:36:44.291Z,10.69
2022-12-25T10:37:46.632Z,10.72
2022-12-25T10:38:48.570Z,10.73
2022-12-25T10:39:49.868Z,10.75
2022-12-25T10:41:00.034Z,10.76
2022-12-25T10:42:12.866Z,10.79
2022-12-25T10:43:25.428Z,10.81
2022-12-25T10:44:27.069Z,10.82
2022-12-25T10:45:31.109Z,10.83
2022-12-25T10:46:32.422Z,10.84
2022-12-25T10:47:35.097Z,10.86
2022-12-25T10:48:39.906Z,10.89
2022-12-25T10:49:43.626Z,10.92
2022-12-25T10:50:44.918Z,10.97
2022-12-25T10:51:46.384Z,11.01
2022-12-25T10:53:04.865Z,11.06
2022-12-25T10:54:22.151Z,11.08
2022-12-25T10:55:29.237Z,11.12
2022-12-25T10:56:31.955Z,11.17
2022-12-25T10:57:46.406Z,11.18
2022-12-25T10:58:47.612Z,11.24
2022-12-25T10:59:50.258Z,11.30
2022-12-25T11:00:53.473Z,11.31
2022-12-25T11:01:55.983Z,11.35
2022-12-25T11:02:57.829Z,11.40
2022-12-25T11:03:59.609Z,11.44
2022-12-25T11:05:09.088Z,11.43
2022-12-25T11:06:24.742Z,11.46
2022-12-25T11:07:26.319Z,11.54
2022-12-25T11:08:28.609Z,11.61
2022-12-25T11:09:30.445Z,11.69
2022-12-25T11:10:34.395Z,11.75
2022-12-25T11:11:36.069Z,11.80
2022-12-25T11:12:41.577Z,11.81
2022-12-25T11:13:48.960Z,11.87
2022-12-25T11:14:58.012Z,11.92
2022-12-25T11:16:05.384Z,11.94
2022-12-25T11:17:09.447Z,11.93
2022-12-25T11:18:16.848Z,11.96
2022-12-25T11:19:24.582Z,11.95
2022-12-25T11:20:26.057Z,11.97
2022-12-25T11:21:28.915Z,12.00
2022-12-25T11:22:30.480Z,11.98
2022-12-25T11:23:33.356Z,11.99
2022-12-25T11:24:34.713Z,11.97
2022-12-25T11:25:36.092Z,11.96
2022-12-25T11:26:50.367Z,11.95
2022-12-25T11:28:17.866Z,11.92
2022-12-25T11:29:25.024Z,11.94
2022-12-25T11:30:27.778Z,11.95
2022-12-25T11:31:43.233Z,11.96
2022-12-25T11:32:46.427Z,12.01
2022-12-25T11:33:51.377Z,12.02
2022-12-25T11:34:53.199Z,12.09
2022-12-25T11:35:55.527Z,12.10
2022-12-25T11:36:57.909Z,12.19
2022-12-25T11:37:59.205Z,12.19
2022-12-25T11:39:17.803Z,12.21
2022-12-25T11:40:19.116Z,12.23
2022-12-25T11:41:27.502Z,12.27
2022-12-25T11:42:37.752Z,12.28
2022-12-25T11:43:42.064Z,12.27
2022-12-25T11:44:49.434Z,12.29
2022-12-25T11:46:14.020Z,12.30
2022-12-25T11:47:22.919Z,12.28
2022-12-25T11:48:33.830Z,12.28
2022-12-25T11:49:45.761Z,12.34
2022-12-25T11:50:53.750Z,12.36
2022-12-25T11:51:56.383Z,12.40
2022-12-25T11:53:02.498Z,12.44
2022-12-25T11:54:16.880Z,12.45
2022-12-25T11:55:18.108Z,12.47
2022-12-25T11:56:27.088Z,12.50
2022-12-25T11:57:30.823Z,12.53
2022-12-25T11:58:35.827Z,12.57
2022-12-25T11:59:44.247Z,12.58
2022-12-25T12:00:47.470Z,12.63
2022-12-25T12:01:51.948Z,12.68
2022-12-25T12:02:56.158Z,12.75
2022-12-25T12:04:01.410Z,12.80
2022-12-25T12:05:16.122Z,12.91
2022-12-25T12:06:26.649Z,12.98
2022-12-25T12:07:30.707Z,13.02
2022-12-25T12:08:34.342Z,13.03
2022-12-25T12:09:54.212Z,13.05
2022-12-25T12:10:55.666Z,13.18
2022-12-25T12:12:17.307Z,13.21
2022-12-25T12:13:45.289Z,13.33
2022-12-25T12:14:56.750Z,13.30
2022-12-25T12:15:58.269Z,13.33
2022-12-25T12:17:00.376Z,13.34
2022-12-25T12:18:08.800Z,13.37
2022-12-25T12:19:11.070Z,13.40
2022-12-25T12:20:13.910Z,13.41
2022-12-25T12:21:18.479Z,13.41
2022-12-25T12:22:22.572Z,13.43
2022-12-25T12:23:24.083Z,13.47
2022-12-25T12:24:29.326Z,13.55
2022-12-25T12:25:31.167Z,13.59
2022-12-25T12:26:34.813Z,13.65
2022-12-25T12:27:40.785Z,13.71
2022-12-25T12:28:45.998Z,13.71
2022-12-25T12:29:50.165Z,13.71
2022-12-25T12:31:05.772Z,13.73
2022-12-25T12:32:27.156Z,13.75
2022-12-25T12:33:30.569Z,13.73
2022-12-25T12:34:42.268Z,13.75
2022-12-25T12:35:45.052Z,13.75
2022-12-25T12:36:46.573Z,13.77
2022-12-25T12:37:59.898Z,13.74
2022-12-25T12:39:01.349Z,13.70
2022-12-25T12:40:04.691Z,13.66
2022-12-25T12:41:07.359Z,13.63
2022-12-25T12:42:14.266Z,13.57
2022-12-25T12:43:44.794Z,13.51
2022-12-25T12:44:49.748Z,13.42
2022-12-25T12:45:56.520Z,13.35
2022-12-25T12:46:58.155Z,13.33
2022-12-25T12:47:59.644Z,13.29
2022-12-25T12:49:16.313Z,13.26
2022-12-25T12:50:29.059Z,13.22
2022-12-25T12:51:33.134Z,13.18
2022-12-25T12:52:36.856Z,13.20
2022-12-25T12:53:40.184Z,13.18
2022-12-25T12:54:54.665Z,13.19
2022-12-25T12:55:58.594Z,13.25
2022-12-25T12:57:04.521Z,13.28
2022-12-25T12:58:08.174Z,13.29
2022-12-25T12:59:09.755Z,13.27
2022-12-25T13:00:23.508Z,13.26
2022-12-25T13:01:27.468Z,13.30
2022-12-25T13:02:38.349Z,13.33
2022-12-25T13:04:06.738Z,13.32
2022-12-25T13:05:15.869Z,13.35
2022-12-25T13:06:20.510Z,13.35
2022-12-25T13:07:34.461Z,13.35
2022-12-25T13:09:08.077Z,13.32
2022-12-25T13:10:14.141Z,13.31
2022-12-25T13:11:24.020Z,13.27
2022-12-25T13:12:25.713Z,13.27
2022-12-25T13:13:30.635Z,13.27
2022-12-25T13:14:32.528Z,13.31
2022-12-25T13:15:35.047Z,13.28
2022-12-25T13:16:39.106Z,13.26
2022-12-25T13:17:43.242Z,13.26
2022-12-25T13:18:46.530Z,13.30
2022-12-25T13:19:50.929Z,13.30
2022-12-25T13:21:03.127Z,13.30
2022-12-25T13:22:06.198Z,13.27
2022-12-25T13:23:26.187Z,13.26
2022-12-25T13:24:29.677Z,13.25
2022-12-25T13:25:31.101Z,13.26
2022-12-25T13:26:32.824Z,13.31
2022-12-25T13:27:34.365Z,13.32
2022-12-25T13:28:36.625Z,13.32
2022-12-25T13:29:38.755Z,13.35
2022-12-25T13:30:40.233Z,13.29
2022-12-25T13:31:41.609Z,13.28
2022-12-25T13:32:43.388Z,13.27
2022-12-25T13:33:46.305Z,13.29
2022-12-25T13:34:48.095Z,13.31
2022-12-25T13:35:50.048Z,13.31
2022-12-25T13:36:52.111Z,13.30
2022-12-25T13:37:53.459Z,13.31
2022-12-25T13:38:57.481Z,13.31
2022-12-25T13:40:04.520Z,13.32
2022-12-25T13:41:05.769Z,13.31
2022-12-25T13:42:07.152Z,13.29
2022-12-25T13:43:10.570Z,13.31
2022-12-25T13:44:16.687Z,13.32
2022-12-25T13:45:25.215Z,13.32
2022-12-25T13:46:28.141Z,13.30
2022-12-25T13:47:37.635Z,13.31
2022-12-25T13:48:39.263Z,13.30
2022-12-25T13:49:41.300Z,13.31
2022-12-25T13:50:42.538Z,13.35
2022-12-25T13:51:45.284Z,13.36
2022-12-25T13:52:48.868Z,13.34
2022-12-25T13:53:52.285Z,13.33
2022-12-25T13:54:54.658Z,13.32
2022-12-25T13:55:59.361Z,13.30
2022-12-25T13:57:02.863Z,13.33
2022-12-25T13:58:05.965Z,13.32
2022-12-25T13:59:13.572Z,13.35
2022-12-25T14:00:20.756Z,13.35
2022-12-25T14:01:22.229Z,13.37
2022-12-25T14:02:27.009Z,13.37
2022-12-25T14:03:36.801Z,13.35
2022-12-25T14:04:44.050Z,13.36
2022-12-25T14:05:45.518Z,13.33
2022-12-25T14:06:48.958Z,13.30